Vremea acum in Blaj - Romania

Vrei sa afli care e starea vremii acum in Alba - Romania? Dorim sa iti furnizam starea vremii pentru Alba - Romania. Starea vremii Alba - Romania pentru astazi.

Vremea acum in Blaj

Temperatura: 15 °C

Este: Senin
Se simte ca: 15.6 °C
Innorat: 0 %
Precipitatii: 0 %
Presiune atmosferica: 1014 hPa
Umiditate: 63%
Vizibilitate: 10 km
Vantul bate din S cu 4.3 km/h

Evolutia vremii in Blaj pe ore

Ora: 12:00
Senin
Temperatura: 22.3°C
Sansa de precipitatii: 0%
Ora Descriere Temp Se simte Precipitatii Umiditate Vant
00:00Senin12.1°11.7°0%63%SSW 6.8 KM/H
01:00Senin11.4°10.8°0%68%SSW 7.2 KM/H
02:00Senin10.7°10.3°0%72%SSW 6.1 KM/H
03:00Senin10.2°10°0%74%SSW 5 KM/H
04:00Patchy rain nearby9.8°9.8°70%76%SSW 4.3 KM/H
05:00Senin9.3°9.5°0%78%S 3.6 KM/H
06:00Senin9.1°9.3°0%78%S 3.6 KM/H
07:00Senin10.1°10.2°0%76%SSE 4 KM/H
08:00Senin13.9°14.6°0%68%S 3.6 KM/H
09:00Senin15°16.3°0%63%S 4.3 KM/H
10:00Senin18.4°18.4°0%57%S 5 KM/H
11:00Senin20.5°20.5°0%52%SSW 5.4 KM/H
12:00Senin22.3°24.4°0%48%SSW 4.3 KM/H
13:00Senin23.9°24.8°0%42%SSW 3.2 KM/H
14:00Senin24.8°25.1°0%38%SSW 5 KM/H
15:00Senin25.1°25.3°0%37%SSW 6.1 KM/H
16:00Senin25.2°25.3°0%37%SSW 6.8 KM/H
17:00Thundery outbreaks in nearby24°24.9°71%42%S 10.4 KM/H
18:00Patchy rain nearby22.5°24.6°68%52%S 11.5 KM/H
19:0019.4°19.4°0%58%SW 10.4 KM/H
20:00Patchy rain nearby16.6°16.6°100%61%SW 10.1 KM/H
21:0016.1°16.1°0%58%SW 6.8 KM/H
22:00Senin14.6°14.8°0%64%SSW 6.1 KM/H
23:00Senin13.5°13.4°0%68%S 6.5 KM/H




tutorials